Loma Alta, Texas
Current Conditions -  °F | °C
As of 6:53 PM on Saturday 25 Oct 2014 (Local Time) from KDRT Reporting Station
Clear Clear  
Wind Chill: 82°   Ceiling: Unl
Heat Index: 82°   Visibility: 10mi
Dew Point: 59°   Wind: 7mph
Humidity: 45%   Direction: 140°SE
Pressure: 30.05"   Gusts: NA
Location:  29.92°N, 100.87°W
Report Text: KDRT 252353Z AUTO 14006KT 10SM CLR 28/15 A3005 RMK AO2 SLP160 T02780150 10306 20272 56006
Loading
Personal Weather Stations






























Interactive Weather Map
Tropical Storm Tracking
New forecast layout! Learn more

10-Day Weather Forecast

Advertisements
Track Severe Weather on mobile